Главная страница
METAR-TAF:

METAR-TAF

Аэропорты :

Ольборг, Дания

широта: 57-06N, долгота: 009-51E, высота над уровнем моря: 3 м

Текущие метеонаблюдения

Эта сводка был подготовлена 40 минут назад, в 05:20 UTC
Ветер 13 Узел от западно-северо-западный
Температура 4°C
Влажность 75%
Давление 1000 hPa
Видимость 10 км и более

METAR: EKYT 100520Z AUTO 29013KT 9999 NCD 04/M00 Q1000

Время: 07:00 (06:00 UTC)

Прогноз

Эта сводка был подготовлена 37 минут назад, в 05:23 UTC
Прогноз действительный с 10-го 06 UTC до 11-го 06 UTC
Ветер 12 Узел от северо-западный
Видимость 10 км и более
небольшая облачность на высоте 3000 фута
Вероятность 40%
С 10-го 06 UTC до 10-го 15 UTC
Ветер 15 Узел от северо-западный с порывами до 25 Узел

TAF: EKYT 100523Z 1006/1106 31012KT 9999 FEW030 PROB40 1006/1015 31015G25KT

Метеонаблюдения и прогнозы для более 4000 аэропортов (сводки METAR и TAF).

Имеющиеся станции представлены на карте желтыми и красными точками.

Чтобы увидеть название станции, наведите на нее мышь.

Затем щелкните, чтобы увидеть метеонаблюдения и метеопрогнозы.

Управление картой: чтобы увеличить масштаб, щелкните зеленые кнопки с черным крестиком; чтобы уменьшить масштаб, щелкните зеленую кнопку с тире; для просмотра соседних карт щелкайте зеленые стрелки.


METAR-TAF: